Sunny Clover — H3SY — position and weather

sailwx.info

Track history (hours):
 
Tides and Currents Weather Stations Pressure Air Temp Water Temp Dewpoint Dewpoint Depression Visibility Wind Speed Wind Dir Waves Ship Positions

Sunny Clover

Last reported at 2018-Aug-13 17:17 UTC. Time now 2018-Aug-15 12:24 UTC.
Position N 35°01' E 129°17'.

Length 137 m; draft 7.3 m.

Type: Ship (hazmat cat C). MMSI: 374431000.

Date/timePositionNaut miles runAvg speedWind from/ knotsBaromVisibWave heightAir tempDewpointWater temp
2018-Aug-13 17:17N 35°01' E 129°17'6 0.6
2018-Aug-13 06:24N 35°07' E 129°13'512.2
2018-Aug-13 06:00N 35°04' E 129°07'4 8.7
2018-Aug-13 05:30N 35°07' E 129°04'0 0.9
2018-Aug-13 04:58N 35°08' E 129°04'0 0.0
2018-Aug-13 04:28N 35°08' E 129°04'0 0.0
2018-Aug-13 03:58N 35°08' E 129°04'0 0.0
2018-Aug-13 03:28N 35°08' E 129°04'0 0.0
2018-Aug-13 02:58N 35°08' E 129°04'0 0.0
2018-Aug-13 02:28N 35°08' E 129°04'0 0.0
2018-Aug-13 01:58N 35°08' E 129°04'0 0.0
2018-Aug-13 01:22N 35°08' E 129°04'0 0.0
2018-Aug-13 00:58N 35°08' E 129°04'0 0.0
2018-Aug-13 00:28N 35°08' E 129°04'0 0.0
2018-Aug-12 23:58N 35°08' E 129°04'0 0.0
2018-Aug-12 23:25N 35°08' E 129°04'0 0.0
2018-Aug-12 22:58N 35°08' E 129°04'0 0.0
2018-Aug-12 22:28N 35°08' E 129°04'0 0.0
2018-Aug-12 21:58N 35°08' E 129°04'0 0.0
2018-Aug-12 21:28N 35°08' E 129°04'0 0.0
2018-Aug-12 20:55N 35°08' E 129°04'0 0.0
2018-Aug-12 20:28N 35°08' E 129°04'0 0.0
2018-Aug-12 19:58N 35°08' E 129°04'0 0.0
2018-Aug-12 19:28N 35°08' E 129°04'0 0.0
2018-Aug-12 18:58N 35°08' E 129°04'0 0.0
2018-Aug-12 18:28N 35°08' E 129°04'0 0.0
2018-Aug-12 17:58N 35°08' E 129°04'0 0.0
2018-Aug-12 17:28N 35°08' E 129°04'0 0.0
2018-Aug-12 16:58N 35°08' E 129°04'0 0.0
2018-Aug-12 16:28N 35°08' E 129°04'0 0.0
2018-Aug-12 15:58N 35°08' E 129°04'0 0.0
2018-Aug-12 15:28N 35°08' E 129°04'0 0.0
2018-Aug-12 14:58N 35°08' E 129°04'0 0.0
2018-Aug-12 14:28N 35°08' E 129°04'0 0.0
2018-Aug-12 13:58N 35°08' E 129°04'0 0.0
2018-Aug-12 13:28N 35°08' E 129°04'0 0.0
2018-Aug-12 12:58N 35°08' E 129°04'0 0.0
2018-Aug-12 12:28N 35°08' E 129°04'0 0.0
2018-Aug-12 11:58N 35°08' E 129°04'1 2.1
2018-Aug-12 11:30N 35°07' E 129°04'5 9.5
2018-Aug-12 11:00N 35°04' E 129°09'3 6.4
2018-Aug-12 10:30N 35°05' E 129°13'  
2018-Aug-07 14:50N 35°02' E 129°22'617.1
2018-Aug-07 14:28N 35°00' E 129°15'816.8
2018-Aug-07 14:00N 34°58' E 129°06'5 0.5
2018-Aug-07 04:07N 35°00' E 129°00'213.1
2018-Aug-07 03:55N 35°01' E 129°03'5 9.6
2018-Aug-07 03:27N 35°05' E 129°07'4 8.1
2018-Aug-07 03:01N 35°07' E 129°04'0 0.7
2018-Aug-07 02:29N 35°07' E 129°04'0 0.0
2018-Aug-07 01:59N 35°07' E 129°04'0 0.1
2018-Aug-07 01:29N 35°07' E 129°04'0 0.0
2018-Aug-07 00:56N 35°07' E 129°04'0 0.0
2018-Aug-07 00:23N 35°07' E 129°04'0 0.1
2018-Aug-06 23:56N 35°07' E 129°04'0 0.0
2018-Aug-06 23:29N 35°07' E 129°04'0 0.0
2018-Aug-06 22:59N 35°07' E 129°04'0 0.0
2018-Aug-06 22:29N 35°07' E 129°04'0 0.0
2018-Aug-06 21:59N 35°07' E 129°04'0 0.1
2018-Aug-06 21:29N 35°07' E 129°04'0 0.0
2018-Aug-06 20:59N 35°07' E 129°04'0 0.1
2018-Aug-06 20:29N 35°07' E 129°04'0 0.0
2018-Aug-06 19:59N 35°07' E 129°04'0 0.0
2018-Aug-06 19:29N 35°07' E 129°04'0 0.0
2018-Aug-06 18:59N 35°07' E 129°04'0 0.1
2018-Aug-06 18:29N 35°07' E 129°04'0 0.1
2018-Aug-06 17:59N 35°07' E 129°04'0 0.0
2018-Aug-06 17:29N 35°07' E 129°04'0 0.0
2018-Aug-06 16:59N 35°07' E 129°04'0 0.1
2018-Aug-06 16:29N 35°07' E 129°04'0 0.1
2018-Aug-06 15:59N 35°07' E 129°04'0 0.1
2018-Aug-06 15:29N 35°07' E 129°04'0 0.0
2018-Aug-06 14:59N 35°07' E 129°04'0 0.0
2018-Aug-06 14:29N 35°07' E 129°04'0 0.1
2018-Aug-06 13:59N 35°07' E 129°04'0 0.0
2018-Aug-06 13:29N 35°07' E 129°04'0 0.1
2018-Aug-06 12:59N 35°07' E 129°04'0 0.1
2018-Aug-06 12:29N 35°07' E 129°04'0 0.0
2018-Aug-06 11:59N 35°07' E 129°04'0 0.5
2018-Aug-06 11:30N 35°07' E 129°04'4 7.6
2018-Aug-06 11:01N 35°05' E 129°07'  
Track history (hours):
 
Tides and Currents Weather Stations Pressure Air Temp Water Temp Dewpoint Dewpoint Depression Visibility Wind Speed Wind Dir Waves Ship Positions

Sunny Clover

Last reported at 2018-Aug-13 17:17 UTC. Time now 2018-Aug-15 12:24 UTC.
Position N 35°01' E 129°17'.

Length 137 m; draft 7.3 m.

Type: Ship (hazmat cat C). MMSI: 374431000.

Date/timePositionNaut miles runAvg speedWind from/ knotsBaromVisibWave heightAir tempDewpointWater temp
2018-Aug-13 17:17N 35°01' E 129°17'6 0.6
2018-Aug-13 06:24N 35°07' E 129°13'512.2
2018-Aug-13 06:00N 35°04' E 129°07'4 8.7
2018-Aug-13 05:30N 35°07' E 129°04'0 0.9
2018-Aug-13 04:58N 35°08' E 129°04'0 0.0
2018-Aug-13 04:28N 35°08' E 129°04'0 0.0
2018-Aug-13 03:58N 35°08' E 129°04'0 0.0
2018-Aug-13 03:28N 35°08' E 129°04'0 0.0
2018-Aug-13 02:58N 35°08' E 129°04'0 0.0
2018-Aug-13 02:28N 35°08' E 129°04'0 0.0
2018-Aug-13 01:58N 35°08' E 129°04'0 0.0
2018-Aug-13 01:22N 35°08' E 129°04'0 0.0
2018-Aug-13 00:58N 35°08' E 129°04'0 0.0
2018-Aug-13 00:28N 35°08' E 129°04'0 0.0
2018-Aug-12 23:58N 35°08' E 129°04'0 0.0
2018-Aug-12 23:25N 35°08' E 129°04'0 0.0
2018-Aug-12 22:58N 35°08' E 129°04'0 0.0
2018-Aug-12 22:28N 35°08' E 129°04'0 0.0
2018-Aug-12 21:58N 35°08' E 129°04'0 0.0
2018-Aug-12 21:28N 35°08' E 129°04'0 0.0
2018-Aug-12 20:55N 35°08' E 129°04'0 0.0
2018-Aug-12 20:28N 35°08' E 129°04'0 0.0
2018-Aug-12 19:58N 35°08' E 129°04'0 0.0
2018-Aug-12 19:28N 35°08' E 129°04'0 0.0
2018-Aug-12 18:58N 35°08' E 129°04'0 0.0
2018-Aug-12 18:28N 35°08' E 129°04'0 0.0
2018-Aug-12 17:58N 35°08' E 129°04'0 0.0
2018-Aug-12 17:28N 35°08' E 129°04'0 0.0
2018-Aug-12 16:58N 35°08' E 129°04'0 0.0
2018-Aug-12 16:28N 35°08' E 129°04'0 0.0
2018-Aug-12 15:58N 35°08' E 129°04'0 0.0
2018-Aug-12 15:28N 35°08' E 129°04'0 0.0
2018-Aug-12 14:58N 35°08' E 129°04'0 0.0
2018-Aug-12 14:28N 35°08' E 129°04'0 0.0
2018-Aug-12 13:58N 35°08' E 129°04'0 0.0
2018-Aug-12 13:28N 35°08' E 129°04'0 0.0
2018-Aug-12 12:58N 35°08' E 129°04'0 0.0
2018-Aug-12 12:28N 35°08' E 129°04'0 0.0
2018-Aug-12 11:58N 35°08' E 129°04'1 2.1
2018-Aug-12 11:30N 35°07' E 129°04'5 9.5
2018-Aug-12 11:00N 35°04' E 129°09'3 6.4
2018-Aug-12 10:30N 35°05' E 129°13'  
2018-Aug-07 14:50N 35°02' E 129°22'617.1
2018-Aug-07 14:28N 35°00' E 129°15'816.8
2018-Aug-07 14:00N 34°58' E 129°06'5 0.5
2018-Aug-07 04:07N 35°00' E 129°00'213.1
2018-Aug-07 03:55N 35°01' E 129°03'5 9.6
2018-Aug-07 03:27N 35°05' E 129°07'4 8.1
2018-Aug-07 03:01N 35°07' E 129°04'0 0.7
2018-Aug-07 02:29N 35°07' E 129°04'0 0.0
2018-Aug-07 01:59N 35°07' E 129°04'0 0.1
2018-Aug-07 01:29N 35°07' E 129°04'0 0.0
2018-Aug-07 00:56N 35°07' E 129°04'0 0.0
2018-Aug-07 00:23N 35°07' E 129°04'0 0.1
2018-Aug-06 23:56N 35°07' E 129°04'0 0.0
2018-Aug-06 23:29N 35°07' E 129°04'0 0.0
2018-Aug-06 22:59N 35°07' E 129°04'0 0.0
2018-Aug-06 22:29N 35°07' E 129°04'0 0.0
2018-Aug-06 21:59N 35°07' E 129°04'0 0.1
2018-Aug-06 21:29N 35°07' E 129°04'0 0.0
2018-Aug-06 20:59N 35°07' E 129°04'0 0.1
2018-Aug-06 20:29N 35°07' E 129°04'0 0.0
2018-Aug-06 19:59N 35°07' E 129°04'0 0.0
2018-Aug-06 19:29N 35°07' E 129°04'0 0.0
2018-Aug-06 18:59N 35°07' E 129°04'0 0.1
2018-Aug-06 18:29N 35°07' E 129°04'0 0.1
2018-Aug-06 17:59N 35°07' E 129°04'0 0.0
2018-Aug-06 17:29N 35°07' E 129°04'0 0.0
2018-Aug-06 16:59N 35°07' E 129°04'0 0.1
2018-Aug-06 16:29N 35°07' E 129°04'0 0.1
2018-Aug-06 15:59N 35°07' E 129°04'0 0.1
2018-Aug-06 15:29N 35°07' E 129°04'0 0.0
2018-Aug-06 14:59N 35°07' E 129°04'0 0.0
2018-Aug-06 14:29N 35°07' E 129°04'0 0.1
2018-Aug-06 13:59N 35°07' E 129°04'0 0.0
2018-Aug-06 13:29N 35°07' E 129°04'0 0.1
2018-Aug-06 12:59N 35°07' E 129°04'0 0.1
2018-Aug-06 12:29N 35°07' E 129°04'0 0.0
2018-Aug-06 11:59N 35°07' E 129°04'0 0.5
2018-Aug-06 11:30N 35°07' E 129°04'4 7.6
2018-Aug-06 11:01N 35°05' E 129°07'  

Dump ship's entire track history